Time;durP1;ratioP1;P1;durP2;ratioP2;P2;SDS_P1;SDS_P2;PMS_P1;PMS_P2;Temp;Humidity;BMP_temperature;BMP_pressure;BME280_temperature;BME280_humidity;BME280_pressure;Samples;Min_cycle;Max_cycle;Signal;HPM_P1;HPM_P2
2021/08/10 00:00:05;;;;;;;3.63;1.95;;;;;;;9.19;100.00;93405.06;2090751;28;20029;-90
2021/08/10 00:01:06;;;;;;;2.85;2.20;;;;;;;9.19;100.00;93414.97;2091562;28;20108;-88
2021/08/10 00:02:07;;;;;;;2.65;2.00;;;;;;;9.19;100.00;93405.06;2104150;28;20106;-87
2021/08/10 00:03:08;;;;;;;3.22;2.15;;;;;;;9.20;100.00;93401.22;2115633;28;20056;-91
2021/08/10 00:04:09;;;;;;;2.72;2.08;;;;;;;9.18;100.00;93403.56;2107418;28;20035;-89
2021/08/10 00:05:10;;;;;;;4.03;1.98;;;;;;;9.14;100.00;93407.41;2115750;28;20047;-87
2021/08/10 00:06:11;;;;;;;4.85;1.95;;;;;;;9.05;100.00;93407.91;2107121;28;20044;-90
2021/08/10 00:07:12;;;;;;;2.63;2.00;;;;;;;9.08;100.00;93394.50;2107095;28;20028;-88
2021/08/10 00:08:17;;;;;;;2.53;1.95;;;;;;;9.04;100.00;93407.13;2096062;28;20112;-91
2021/08/10 00:09:18;;;;;;;3.40;1.92;;;;;;;9.12;100.00;93399.03;2108467;27;20023;-90
2021/08/10 00:10:19;;;;;;;5.65;2.40;;;;;;;9.16;100.00;93399.75;2115655;28;20050;-90
2021/08/10 00:11:20;;;;;;;2.38;2.17;;;;;;;9.13;100.00;93401.31;2124288;27;20468;-92
2021/08/10 00:12:22;;;;;;;3.33;2.40;;;;;;;9.13;100.00;93400.53;2107390;28;20073;-90
2021/08/10 00:13:23;;;;;;;3.33;2.03;;;;;;;9.10;100.00;93394.13;2102222;28;20029;-92
2021/08/10 00:14:25;;;;;;;5.05;1.90;;;;;;;9.11;100.00;93395.63;2105452;28;20122;-90
2021/08/10 00:15:26;;;;;;;2.50;1.83;;;;;;;9.05;100.00;93391.91;2107285;28;20028;-92
2021/08/10 00:16:27;;;;;;;2.00;1.80;;;;;;;9.11;100.00;93400.19;2107209;28;20024;-92
2021/08/10 00:17:28;;;;;;;1.88;1.77;;;;;;;9.06;100.00;93393.41;2107224;28;20020;-93
2021/08/10 00:18:29;;;;;;;2.45;1.90;;;;;;;8.96;100.00;93392.38;2104240;28;20570;-89
2021/08/10 00:19:30;;;;;;;2.50;2.05;;;;;;;8.96;100.00;93400.38;2115625;28;20031;-91
2021/08/10 00:20:31;;;;;;;3.80;2.10;;;;;;;8.99;100.00;93402.22;2107206;28;20019;-91
2021/08/10 00:21:32;;;;;;;1.83;1.45;;;;;;;8.96;100.00;93400.38;2098709;28;20055;-89
2021/08/10 00:22:33;;;;;;;2.65;2.03;;;;;;;8.98;100.00;93399.97;2107204;28;20052;-90
2021/08/10 00:23:34;;;;;;;3.88;1.83;;;;;;;8.99;100.00;93401.47;2107052;28;20048;-89
2021/08/10 00:24:34;;;;;;;2.45;2.15;;;;;;;8.99;100.00;93398.81;2097486;28;20029;-88
2021/08/10 00:25:36;;;;;;;2.67;1.90;;;;;;;8.96;100.00;93403.03;2103352;28;20025;-92
2021/08/10 00:26:36;;;;;;;3.20;2.25;;;;;;;9.01;100.00;93397.25;2090487;28;20107;-90
2021/08/10 00:27:38;;;;;;;3.45;1.90;;;;;;;8.97;100.00;93393.88;2081985;28;20026;-91
2021/08/10 00:28:39;;;;;;;2.92;2.08;;;;;;;8.93;100.00;93395.06;2082226;28;20021;-90
2021/08/10 00:29:40;;;;;;;2.85;2.15;;;;;;;8.99;100.00;93391.56;2082346;28;20017;-89
2021/08/10 00:30:42;;;;;;;2.45;1.80;;;;;;;9.01;100.00;93396.50;2099257;28;20030;-90
2021/08/10 00:31:43;;;;;;;5.15;1.88;;;;;;;9.02;100.00;93398.75;2107161;28;20020;-89
2021/08/10 00:32:44;;;;;;;2.22;2.03;;;;;;;8.99;100.00;93398.81;2098703;28;20028;-89
2021/08/10 00:33:45;;;;;;;4.07;1.83;;;;;;;8.93;100.00;93400.41;2115467;28;20114;-90
2021/08/10 00:34:46;;;;;;;3.97;2.08;;;;;;;8.89;100.00;93400.44;2104861;28;20610;-89
2021/08/10 00:35:47;;;;;;;5.00;1.67;;;;;;;8.96;100.00;93394.28;2102701;28;20020;-88
2021/08/10 00:36:48;;;;;;;2.67;2.17;;;;;;;8.95;100.00;93392.75;2115406;28;20066;-91
2021/08/10 00:37:49;;;;;;;2.20;1.95;;;;;;;8.88;100.00;93401.59;2123763;27;20019;-92
2021/08/10 00:38:50;;;;;;;3.92;2.10;;;;;;;8.98;100.00;93394.63;2123893;27;20014;-88
2021/08/10 00:39:51;;;;;;;4.57;2.03;;;;;;;8.78;100.00;93395.22;2115873;27;20028;-90
2021/08/10 00:40:54;;;;;;;3.33;1.58;;;;;;;8.75;100.00;93390.69;2115537;28;20047;-89
2021/08/10 00:41:55;;;;;;;2.85;1.70;;;;;;;8.86;100.00;93393.22;2099101;28;20044;-90
2021/08/10 00:42:56;;;;;;;2.75;1.98;;;;;;;8.90;100.00;93396.59;2107114;28;20047;-88
2021/08/10 00:43:57;;;;;;;2.13;1.80;;;;;;;8.89;100.00;93392.44;2107100;28;20050;-89
2021/08/10 00:44:58;;;;;;;3.35;1.80;;;;;;;8.81;100.00;93396.34;2098757;28;20048;-89
2021/08/10 00:46:00;;;;;;;2.80;1.80;;;;;;;8.80;100.00;93398.25;2106657;28;20020;-89
2021/08/10 00:47:01;;;;;;;3.28;1.95;;;;;;;8.83;100.00;93389.47;2113597;28;20057;-89
2021/08/10 00:48:02;;;;;;;4.07;2.10;;;;;;;8.80;100.00;93394.81;2098729;28;20030;-90
2021/08/10 00:49:03;;;;;;;4.00;2.03;;;;;;;8.74;100.00;93388.44;2092855;28;20024;-91
2021/08/10 00:50:05;;;;;;;2.95;1.75;;;;;;;8.69;100.00;93386.16;2094380;28;20032;-89
2021/08/10 00:51:08;;;;;;;4.38;1.88;;;;;;;8.77;100.00;93388.38;2106838;28;20043;-88
2021/08/10 00:52:10;;;;;;;3.55;2.00;;;;;;;8.74;100.00;93391.84;2099135;28;20506;-90
2021/08/10 00:53:11;;;;;;;2.30;1.80;;;;;;;8.69;100.00;93397.63;2107054;28;20464;-90
2021/08/10 00:54:12;;;;;;;5.25;2.13;;;;;;;8.89;100.00;93392.44;2106874;28;20103;-90
2021/08/10 00:55:13;;;;;;;6.03;2.15;;;;;;;8.83;100.00;93389.47;2106981;28;20115;-90
2021/08/10 00:56:14;;;;;;;5.03;1.98;;;;;;;8.73;100.00;93392.22;2106785;28;20028;-87
2021/08/10 00:57:15;;;;;;;2.78;2.00;;;;;;;8.74;100.00;93389.19;2105433;28;20020;-89
2021/08/10 00:58:16;;;;;;;1.77;1.67;;;;;;;8.76;100.00;93391.44;2097916;28;20036;-91
2021/08/10 00:59:17;;;;;;;2.28;2.08;;;;;;;8.77;100.00;93388.38;2098574;28;20090;-91
2021/08/10 01:00:18;;;;;;;3.92;2.15;;;;;;;8.80;100.00;93384.91;2090045;28;20020;-90
2021/08/10 01:01:19;;;;;;;2.47;1.77;;;;;;;8.87;100.00;93383.31;2090194;28;20017;-90
2021/08/10 01:02:20;;;;;;;2.78;1.90;;;;;;;8.81;100.00;93380.34;2090161;28;20483;-88
2021/08/10 01:03:21;;;;;;;3.00;2.03;;;;;;;8.88;100.00;93382.19;2097958;28;20059;-89
2021/08/10 01:04:22;;;;;;;2.95;2.15;;;;;;;8.87;100.00;93377.97;2115381;28;20117;-91
2021/08/10 01:05:23;;;;;;;2.10;1.75;;;;;;;8.92;100.00;93373.00;2115195;28;20024;-90
2021/08/10 01:06:29;;;;;;;2.78;1.70;;;;;;;8.88;100.00;93380.28;2109844;28;20036;-87
2021/08/10 01:07:44;;;;;;;3.92;2.00;;;;;;;8.89;100.00;93371.13;2092905;28;20028;-90
2021/08/10 01:09:02;;;;;;;2.10;1.92;;;;;;;8.85;100.00;93375.72;2107475;28;20024;-87
2021/08/10 01:10:31;;;;;;;2.55;1.90;;;;;;;8.66;100.00;93384.31;2103985;28;20100;-89
2021/08/10 01:12:01;;;;;;;2.78;2.08;;;;;;;8.74;100.00;93375.09;2102357;28;20050;-90
2021/08/10 01:13:16;;;;;;;2.72;1.85;;;;;;;8.71;100.00;93381.22;2093861;28;20048;-90
2021/08/10 01:14:25;;;;;;;2.38;1.80;;;;;;;8.70;100.00;93385.03;2086265;28;20037;-88
2021/08/10 01:15:34;;;;;;;3.47;2.10;;;;;;;8.66;100.00;93381.66;2090793;28;20052;-87
2021/08/10 01:16:56;;;;;;;1.83;1.70;;;;;;;8.69;100.00;93378.97;2091397;28;20107;-91
2021/08/10 01:18:15;;;;;;;2.28;1.90;;;;;;;8.70;100.00;93380.47;2100883;28;20492;-88
2021/08/10 01:19:50;;;;;;;3.55;1.88;;;;;;;8.81;100.00;93375.75;2100774;28;20016;-90
2021/08/10 01:21:20;;;;;;;7.63;2.35;;;;;;;8.73;100.00;93382.31;2102434;28;20555;-89
2021/08/10 01:22:24;;;;;;;2.72;1.80;;;;;;;8.77;100.00;93376.97;2106428;28;20020;-91
2021/08/10 01:23:27;;;;;;;2.35;1.90;;;;;;;8.78;100.00;93381.91;2098783;28;20024;-87
2021/08/10 01:24:44;;;;;;;4.82;2.30;;;;;;;8.76;100.00;93383.44;2095507;28;20025;-90
2021/08/10 01:26:17;;;;;;;3.47;1.80;;;;;;;8.75;100.00;93382.69;2117521;27;20016;-87
2021/08/10 01:27:25;;;;;;;3.13;1.50;;;;;;;8.75;100.00;93387.28;2119381;27;20034;-88
2021/08/10 01:28:34;;;;;;;2.75;2.10;;;;;;;8.76;100.00;93380.78;2116052;27;20023;-90
2021/08/10 01:29:40;;;;;;;2.38;1.98;;;;;;;8.74;100.00;93383.84;2116349;27;20027;-90
2021/08/10 01:30:52;;;;;;;4.80;2.00;;;;;;;8.80;100.00;93392.16;2115750;27;20067;-90
2021/08/10 01:31:53;;;;;;;3.80;2.00;;;;;;;8.79;100.00;93390.66;2103813;28;20103;-88
2021/08/10 01:32:55;;;;;;;2.40;1.98;;;;;;;8.80;100.00;93384.91;2114975;28;20024;-88
2021/08/10 01:34:05;;;;;;;1.67;1.58;;;;;;;8.78;100.00;93392.56;2115177;28;20052;-90
2021/08/10 01:35:07;;;;;;;;;;;;;;;8.83;100.00;93386.03;2101404;28;20028;-85
2021/08/10 01:36:10;;;;;;;2.17;1.65;;;;;;;8.82;100.00;93385.28;2098471;28;20038;-90
2021/08/10 01:37:19;;;;;;;1.60;1.50;;;;;;;8.85;100.00;93378.41;2115550;28;20057;-93
2021/08/10 01:38:22;;;;;;;4.63;1.58;;;;;;;8.91;100.00;93387.47;2116241;27;20056;-90
2021/08/10 01:39:28;;;;;;;1.83;1.58;;;;;;;8.94;100.00;93383.25;2107317;28;20574;-91
2021/08/10 01:40:31;;;;;;;3.35;1.70;;;;;;;8.93;100.00;93390.50;2108689;27;20031;-91
2021/08/10 01:41:32;;;;;;;1.98;1.77;;;;;;;8.87;100.00;93384.09;2116253;28;20111;-92
2021/08/10 01:42:37;;;;;;;3.97;1.90;;;;;;;8.81;100.00;93383.00;2113415;28;20107;-92
2021/08/10 01:43:40;;;;;;;3.45;1.83;;;;;;;8.86;100.00;93384.47;2116374;28;20023;-92
2021/08/10 01:44:43;;;;;;;2.05;1.77;;;;;;;8.83;100.00;93383.38;2107844;28;20023;-89
2021/08/10 01:45:46;;;;;;;2.00;1.80;;;;;;;8.80;100.00;93379.59;2099831;28;20024;-92
2021/08/10 01:46:48;;;;;;;2.83;2.03;;;;;;;8.76;100.00;93381.53;2101817;28;20028;-87
2021/08/10 01:47:50;;;;;;;2.33;1.58;;;;;;;8.80;100.00;93382.25;2109226;28;20024;-89
2021/08/10 01:48:53;;;;;;;2.17;1.98;;;;;;;8.75;100.00;93377.38;2103202;28;20051;-88
2021/08/10 01:49:54;;;;;;;2.53;2.00;;;;;;;8.78;100.00;93381.91;2109100;28;20091;-89
2021/08/10 01:50:55;;;;;;;4.38;2.30;;;;;;;8.78;100.00;93379.25;2119684;28;20019;-86
2021/08/10 01:51:57;;;;;;;2.30;1.90;;;;;;;8.84;100.00;93374.22;2111722;28;20020;-89
2021/08/10 01:52:59;;;;;;;3.80;2.28;;;;;;;8.84;100.00;93379.56;2109650;28;20396;-87
2021/08/10 01:54:02;;;;;;;2.97;1.92;;;;;;;8.81;100.00;93381.09;2093667;28;20029;-89
2021/08/10 01:55:05;;;;;;;2.75;1.92;;;;;;;8.81;100.00;93373.09;2110905;27;20020;-87
2021/08/10 01:56:07;;;;;;;2.50;1.98;;;;;;;8.74;100.00;93380.44;2102894;28;20090;-89
2021/08/10 01:57:10;;;;;;;3.15;1.95;;;;;;;8.68;100.00;93376.66;2098475;28;20031;-88
2021/08/10 01:58:11;;;;;;;2.00;1.90;;;;;;;8.67;100.00;93375.91;2105919;28;20465;-90
2021/08/10 01:59:14;;;;;;;2.20;1.83;;;;;;;8.63;100.00;93379.78;2107884;27;20098;-92
2021/08/10 02:00:15;;;;;;;1.88;1.77;;;;;;;8.64;100.00;93375.94;2114971;28;20504;-89
2021/08/10 02:01:17;;;;;;;1.70;1.60;;;;;;;8.61;100.00;93374.09;2106386;28;20028;-91
2021/08/10 02:02:19;;;;;;;2.40;2.10;;;;;;;8.62;100.00;93367.59;2103750;28;20028;-91
2021/08/10 02:03:21;;;;;;;1.67;1.58;;;;;;;8.58;100.00;93368.38;2089440;28;20021;-92
2021/08/10 02:04:23;;;;;;;2.72;1.80;;;;;;;8.57;100.00;93369.56;2098581;28;20024;-89
2021/08/10 02:06:46;;;;;;;;;;;;;;;8.57;100.00;93363.47;2144258;27;20122;-87
2021/08/10 02:07:48;;;;;;;2.70;1.67;;;;;;;8.54;100.00;93367.66;2118849;28;20307;-87
2021/08/10 02:08:52;;;;;;;2.10;1.80;;;;;;;8.46;100.00;93365.47;2112661;28;20020;-86
2021/08/10 02:09:54;;;;;;;4.18;2.10;;;;;;;8.46;100.00;93370.81;2105345;27;20585;-86
2021/08/10 02:10:56;;;;;;;1.80;1.70;;;;;;;8.38;100.00;93372.75;2112635;28;20072;-87
2021/08/10 02:11:58;;;;;;;2.10;1.85;;;;;;;8.40;100.00;93365.16;2120798;28;20053;-87
2021/08/10 02:13:00;;;;;;;1.77;1.67;;;;;;;8.33;100.00;93367.84;2104046;28;20031;-87
2021/08/10 02:14:02;;;;;;;2.22;1.80;;;;;;;8.41;100.00;93366.66;2104216;28;20036;-85
2021/08/10 02:15:03;;;;;;;3.17;2.13;;;;;;;8.29;100.00;93375.09;2112426;27;20023;-86
2021/08/10 02:16:08;;;;;;;2.20;1.90;;;;;;;8.29;100.00;93367.13;2120735;28;20381;-85
2021/08/10 02:17:09;;;;;;;1.88;1.65;;;;;;;8.38;100.00;93366.69;2113047;28;20027;-83
2021/08/10 02:18:10;;;;;;;2.72;1.45;;;;;;;8.24;100.00;93360.31;2104145;28;20028;-86
2021/08/10 02:19:11;;;;;;;3.20;1.83;;;;;;;8.33;100.00;93367.84;2104007;28;20105;-83
2021/08/10 02:20:13;;;;;;;1.90;1.60;;;;;;;8.34;100.00;93358.72;2109832;28;20028;-84
2021/08/10 02:21:27;;;;;;;3.13;1.80;;;;;;;8.38;100.00;93361.34;2103984;28;20501;-84
2021/08/10 02:22:29;;;;;;;2.78;2.00;;;;;;;8.34;100.00;93366.72;2085962;28;20041;-84
2021/08/10 02:23:32;;;;;;;2.33;1.90;;;;;;;8.35;100.00;93365.56;2104238;28;20131;-84
2021/08/10 02:24:48;;;;;;;2.05;1.85;;;;;;;8.33;100.00;93359.84;2096325;28;20074;-84
2021/08/10 02:25:50;;;;;;;5.72;1.88;;;;;;;8.37;100.00;93365.19;2099687;28;20062;-86
2021/08/10 02:26:56;;;;;;;2.20;2.00;;;;;;;8.37;100.00;93365.94;2092527;28;20576;-85
2021/08/10 02:28:00;;;;;;;2.13;1.98;;;;;;;8.35;100.00;93359.47;2102480;28;20362;-84
2021/08/10 02:29:02;;;;;;;2.08;1.88;;;;;;;8.33;100.00;93362.53;2104290;28;20051;-83
2021/08/10 02:30:09;;;;;;;2.28;2.08;;;;;;;8.31;100.00;93354.19;2095830;28;20032;-83
2021/08/10 02:31:11;;;;;;;2.80;2.00;;;;;;;8.27;100.00;93351.53;2097347;28;20036;-84
2021/08/10 02:32:17;;;;;;;2.15;1.80;;;;;;;8.27;100.00;93353.44;2095260;28;20032;-85
2021/08/10 02:33:22;;;;;;;3.60;1.88;;;;;;;8.22;100.00;93356.53;2105414;28;20396;-87
2021/08/10 02:34:24;;;;;;;1.80;1.70;;;;;;;8.27;100.00;93351.53;2112085;28;20111;-84
2021/08/10 02:35:29;;;;;;;2.42;2.22;;;;;;;8.31;100.00;93351.50;2103825;28;20432;-85
2021/08/10 02:36:31;;;;;;;7.25;2.15;;;;;;;8.19;100.00;93347.44;2096776;28;20045;-84
2021/08/10 02:37:34;;;;;;;2.10;1.90;;;;;;;8.21;100.00;93349.69;2111886;28;20598;-87
2021/08/10 02:38:38;;;;;;;3.00;1.90;;;;;;;8.07;100.00;93350.56;2099977;28;20505;-83
2021/08/10 02:39:39;;;;;;;3.20;2.10;;;;;;;8.20;100.00;93350.84;2104581;28;20028;-84
2021/08/10 02:40:41;;;;;;;2.55;1.88;;;;;;;8.11;100.00;93356.63;2112317;28;20019;-87
2021/08/10 02:41:42;;;;;;;2.53;2.33;;;;;;;8.14;100.00;93350.53;2095855;28;20017;-86
2021/08/10 02:42:48;;;;;;;3.90;2.22;;;;;;;8.14;100.00;93352.44;2098756;28;20021;-89
2021/08/10 02:43:49;;;;;;;3.30;1.95;;;;;;;8.18;100.00;93350.50;2110216;28;20047;-87
2021/08/10 02:44:52;;;;;;;1.90;1.70;;;;;;;8.16;100.00;93350.13;2112106;28;20039;-84
2021/08/10 02:45:53;;;;;;;2.35;1.95;;;;;;;8.16;100.00;93347.47;2104024;28;20033;-85
2021/08/10 02:46:54;;;;;;;4.40;2.25;;;;;;;8.19;100.00;93338.69;2095695;28;20028;-87
2021/08/10 02:47:57;;;;;;;2.20;2.00;;;;;;;8.03;100.00;93350.63;2108049;28;20099;-84
2021/08/10 02:48:58;;;;;;;2.88;1.92;;;;;;;8.04;100.00;93340.72;2103050;28;20027;-87
2021/08/10 02:49:59;;;;;;;2.92;2.03;;;;;;;8.04;100.00;93343.38;2103480;28;20086;-85
2021/08/10 02:51:00;;;;;;;3.28;2.00;;;;;;;8.11;100.00;93351.28;2103721;28;20024;-86
2021/08/10 02:52:01;;;;;;;3.88;2.20;;;;;;;8.13;100.00;93340.28;2103274;28;20027;-88
2021/08/10 02:53:04;;;;;;;2.72;1.85;;;;;;;8.10;100.00;93344.47;2100191;28;20123;-85
2021/08/10 02:54:05;;;;;;;4.47;1.63;;;;;;;8.11;100.00;93343.31;2095546;28;20111;-84
2021/08/10 02:55:07;;;;;;;3.25;2.13;;;;;;;8.05;100.00;93347.56;2111723;27;20028;-85
2021/08/10 02:56:14;;;;;;;4.57;2.20;;;;;;;8.01;100.00;93347.59;2112072;28;20046;-88
2021/08/10 02:57:31;;;;;;;1.70;1.60;;;;;;;8.01;100.00;93346.84;2105269;28;20039;-84
2021/08/10 02:58:38;;;;;;;2.97;2.70;;;;;;;8.00;100.00;93351.41;2097403;28;20032;-83
2021/08/10 02:59:52;;;;;;;5.15;2.45;;;;;;;7.99;100.00;93343.78;2098738;28;20047;-87
2021/08/10 03:01:07;;;;;;;4.70;2.20;;;;;;;7.98;100.00;93351.03;2105391;28;20500;-87
2021/08/10 03:02:12;;;;;;;3.28;1.92;;;;;;;8.04;100.00;93349.47;2093733;28;20028;-84
2021/08/10 03:03:17;;;;;;;2.45;2.08;;;;;;;7.98;100.00;93350.28;2104659;28;20223;-86
2021/08/10 03:04:22;;;;;;;3.60;1.90;;;;;;;8.09;100.00;93342.97;2103951;28;20024;-86
2021/08/10 03:05:26;;;;;;;2.95;2.28;;;;;;;7.98;100.00;93347.59;2104368;28;20054;-86
2021/08/10 03:06:30;;;;;;;3.38;2.00;;;;;;;7.98;100.00;93348.34;2112121;28;20040;-85
2021/08/10 03:07:31;;;;;;;2.75;1.88;;;;;;;7.91;100.00;93351.09;2104281;28;20020;-87
2021/08/10 03:08:35;;;;;;;3.97;2.00;;;;;;;7.92;100.00;93349.94;2104036;28;20096;-85
2021/08/10 03:09:37;;;;;;;2.67;2.13;;;;;;;7.93;100.00;93348.03;2101604;28;20146;-86
2021/08/10 03:10:39;;;;;;;1.95;1.70;;;;;;;7.97;100.00;93346.09;2108128;28;20400;-84
2021/08/10 03:11:41;;;;;;;2.13;1.92;;;;;;;7.92;100.00;93351.84;2103359;28;20020;-85
2021/08/10 03:12:47;;;;;;;3.47;2.17;;;;;;;7.99;100.00;93351.78;2103556;28;20028;-86
2021/08/10 03:13:50;;;;;;;4.97;2.00;;;;;;;7.94;100.00;93354.88;2104814;28;20169;-87
2021/08/10 03:14:54;;;;;;;2.45;2.15;;;;;;;7.97;100.00;93359.41;2103709;28;20025;-85
2021/08/10 03:15:57;;;;;;;3.35;1.85;;;;;;;7.90;100.00;93352.25;2104003;28;20020;-85
2021/08/10 03:17:02;;;;;;;2.85;1.80;;;;;;;7.95;100.00;93357.16;2112147;27;20019;-84
2021/08/10 03:18:06;;;;;;;3.05;1.75;;;;;;;7.91;100.00;93356.41;2106791;28;20173;-84
2021/08/10 03:19:09;;;;;;;4.50;1.85;;;;;;;7.94;100.00;93352.94;2099865;27;20536;-83
2021/08/10 03:20:12;;;;;;;2.40;2.20;;;;;;;7.94;100.00;93355.63;2106325;28;20349;-86
2021/08/10 03:21:13;;;;;;;4.38;2.13;;;;;;;7.93;100.00;93343.47;2106294;28;20533;-85
2021/08/10 03:22:16;;;;;;;2.70;1.80;;;;;;;7.93;100.00;93350.69;2106074;28;20028;-88
2021/08/10 03:23:19;;;;;;;4.07;2.33;;;;;;;7.89;100.00;93347.31;2093695;28;20560;-84
2021/08/10 03:24:23;;;;;;;3.35;2.35;;;;;;;7.83;100.00;93345.06;2098151;28;20148;-87
2021/08/10 03:25:25;;;;;;;2.65;2.05;;;;;;;7.93;100.00;93348.03;2090338;28;20033;-87
2021/08/10 03:26:28;;;;;;;3.55;1.80;;;;;;;7.89;100.00;93344.63;2098134;28;20025;-86
2021/08/10 03:27:29;;;;;;;2.25;2.05;;;;;;;7.90;100.00;93352.25;2106279;28;20194;-85
2021/08/10 03:28:32;;;;;;;2.58;2.15;;;;;;;7.87;100.00;93344.28;2106204;28;20016;-87
2021/08/10 03:29:35;;;;;;;2.60;2.00;;;;;;;7.87;100.00;93344.28;2098310;28;20028;-87
2021/08/10 03:30:39;;;;;;;2.80;2.13;;;;;;;7.86;100.00;93345.41;2098208;28;20108;-86
2021/08/10 03:31:40;;;;;;;2.15;1.95;;;;;;;7.87;100.00;93342.38;2099028;28;20017;-87
2021/08/10 03:32:44;;;;;;;3.88;2.30;;;;;;;7.84;100.00;93348.47;2105294;28;20536;-88
2021/08/10 03:33:47;;;;;;;4.68;2.30;;;;;;;7.91;100.00;93345.03;2105891;28;20405;-85
2021/08/10 03:34:48;;;;;;;2.20;2.00;;;;;;;7.85;100.00;93350.00;2105767;28;20499;-84
2021/08/10 03:35:51;;;;;;;2.42;2.22;;;;;;;7.85;100.00;93350.00;2098004;28;20115;-86
2021/08/10 03:36:53;;;;;;;2.38;2.15;;;;;;;7.82;100.00;93350.78;2098135;28;20027;-87
2021/08/10 03:37:55;;;;;;;3.50;2.20;;;;;;;7.80;100.00;93353.06;2095431;28;20024;-86
2021/08/10 03:38:57;;;;;;;4.47;1.98;;;;;;;7.83;100.00;93357.63;2106220;28;20032;-87
2021/08/10 03:40:00;;;;;;;2.58;1.63;;;;;;;7.86;100.00;93348.06;2097249;28;20028;-85
2021/08/10 03:41:02;;;;;;;1.80;1.70;;;;;;;7.82;100.00;93353.44;2106308;28;20028;-88
2021/08/10 03:42:04;;;;;;;2.05;1.85;;;;;;;7.84;100.00;93345.81;2097940;28;20024;-88
2021/08/10 03:43:05;;;;;;;2.70;2.00;;;;;;;7.86;100.00;93346.19;2095593;28;20035;-86
2021/08/10 03:44:07;;;;;;;2.15;1.90;;;;;;;7.87;100.00;93349.63;2097849;28;20032;-85
2021/08/10 03:45:08;;;;;;;2.42;2.22;;;;;;;7.85;100.00;93347.31;2103365;28;20020;-85
2021/08/10 03:46:09;;;;;;;2.13;1.80;;;;;;;7.85;100.00;93350.00;2097531;28;20117;-86
2021/08/10 03:47:12;;;;;;;3.22;1.92;;;;;;;7.71;100.00;93350.09;2106112;28;20031;-88
2021/08/10 03:48:13;;;;;;;1.75;1.65;;;;;;;7.68;100.00;93348.22;2106255;28;20056;-85
2021/08/10 03:49:19;;;;;;;2.10;1.90;;;;;;;7.76;100.00;93341.69;2105899;28;20028;-85
2021/08/10 03:50:21;;;;;;;2.58;1.77;;;;;;;7.69;100.00;93344.44;2098941;28;20029;-84
2021/08/10 03:51:23;;;;;;;3.00;2.45;;;;;;;7.80;100.00;93351.16;2105933;28;20027;-84
2021/08/10 03:52:24;;;;;;;2.42;1.88;;;;;;;7.73;100.00;93347.81;2104751;28;20080;-84
2021/08/10 03:53:26;;;;;;;3.42;2.10;;;;;;;7.65;100.00;93349.75;2091311;28;20058;-85
2021/08/10 03:54:26;;;;;;;1.90;1.80;;;;;;;7.72;100.00;93348.94;2097768;28;20077;-84
2021/08/10 03:55:28;;;;;;;3.08;2.00;;;;;;;7.71;100.00;93348.19;2097238;28;20118;-83
2021/08/10 03:56:29;;;;;;;2.70;2.00;;;;;;;7.74;100.00;93359.97;2105974;28;20094;-87
2021/08/10 03:57:33;;;;;;;2.40;2.20;;;;;;;7.76;100.00;93358.41;2114960;28;20019;-85
2021/08/10 03:58:35;;;;;;;1.95;1.85;;;;;;;7.80;100.00;93361.06;2107678;28;20086;-83
2021/08/10 03:59:36;;;;;;;2.28;2.08;;;;;;;7.77;100.00;93359.16;2100103;28;20429;-86
2021/08/10 04:00:39;;;;;;;4.30;2.10;;;;;;;7.76;100.00;93355.00;2107561;28;20027;-86
2021/08/10 04:01:40;;;;;;;4.47;2.28;;;;;;;7.74;100.00;93352.00;2099178;28;20023;-84
2021/08/10 04:02:43;;;;;;;3.47;1.63;;;;;;;7.78;100.00;93358.03;2097097;28;20073;-86
2021/08/10 04:03:44;;;;;;;4.50;2.20;;;;;;;7.78;100.00;93348.16;2106363;27;20532;-87
2021/08/10 04:04:49;;;;;;;4.90;2.13;;;;;;;7.78;100.00;93355.38;2114023;28;20031;-84
2021/08/10 04:05:51;;;;;;;4.53;2.17;;;;;;;7.75;100.00;93356.16;2097693;28;20031;-85
2021/08/10 04:06:54;;;;;;;4.28;2.10;;;;;;;7.71;100.00;93355.41;2089672;28;20500;-84
2021/08/10 04:07:54;;;;;;;2.20;1.60;;;;;;;7.71;100.00;93363.41;2094748;28;20042;-84
2021/08/10 04:08:55;;;;;;;3.15;2.10;;;;;;;7.75;100.00;93358.81;2093085;28;20462;-85
2021/08/10 04:09:57;;;;;;;2.33;2.13;;;;;;;7.81;100.00;93354.56;2097269;28;20074;-86
2021/08/10 04:10:58;;;;;;;2.92;1.90;;;;;;;7.78;100.00;93358.78;2097259;28;20501;-86
2021/08/10 04:11:59;;;;;;;4.63;1.92;;;;;;;7.76;100.00;93360.31;2089485;28;20028;-86
2021/08/10 04:13:00;;;;;;;6.03;2.28;;;;;;;7.72;100.00;93357.69;2097429;28;20028;-85
2021/08/10 04:14:01;;;;;;;2.25;1.83;;;;;;;7.71;100.00;93366.06;2105443;28;20503;-86
2021/08/10 04:15:05;;;;;;;2.70;2.40;;;;;;;7.68;100.00;93358.84;2097368;28;20024;-87
2021/08/10 04:16:08;;;;;;;2.47;1.83;;;;;;;7.74;100.00;93359.97;2098073;28;20117;-85
2021/08/10 04:17:10;;;;;;;2.00;1.90;;;;;;;7.75;100.00;93356.91;2101303;28;20107;-85
2021/08/10 04:18:13;;;;;;;2.67;2.20;;;;;;;7.75;100.00;93356.91;2105603;28;20028;-86
2021/08/10 04:19:15;;;;;;;2.75;1.85;;;;;;;7.68;100.00;93356.19;2114004;27;20055;-86
2021/08/10 04:20:17;;;;;;;2.15;1.85;;;;;;;7.70;100.00;93353.91;2113564;28;20027;-84
2021/08/10 04:21:19;;;;;;;1.95;1.60;;;;;;;7.68;100.00;93359.63;2097523;28;20028;-85
2021/08/10 04:22:20;;;;;;;4.63;1.38;;;;;;;7.79;100.00;93356.88;2089530;28;20385;-87
2021/08/10 04:23:22;;;;;;;1.83;1.70;;;;;;;7.82;100.00;93350.78;2088961;28;20132;-84
2021/08/10 04:24:23;;;;;;;2.13;1.65;;;;;;;7.81;100.00;93355.34;2105124;28;20059;-85
2021/08/10 04:25:24;;;;;;;1.85;1.63;;;;;;;7.78;100.00;93350.06;2096678;28;20032;-83
2021/08/10 04:26:25;;;;;;;1.90;1.70;;;;;;;7.81;100.00;93358.03;2088957;28;20021;-86
2021/08/10 04:27:26;;;;;;;1.40;1.30;;;;;;;7.79;100.00;93362.22;2105454;28;20142;-85
2021/08/10 04:28:27;;;;;;;1.60;1.48;;;;;;;7.83;100.00;93361.03;2097130;28;20036;-85
2021/08/10 04:29:27;;;;;;;1.27;1.17;;;;;;;7.87;100.00;93363.66;2096755;28;20029;-83
2021/08/10 04:30:30;;;;;;;2.03;1.45;;;;;;;7.86;100.00;93358.72;2104774;28;20055;-86
2021/08/10 04:31:31;;;;;;;1.40;1.30;;;;;;;7.89;100.00;93360.59;2097455;28;20112;-84
2021/08/10 04:32:32;;;;;;;2.25;1.50;;;;;;;7.91;100.00;93363.66;2089041;28;20032;-84
2021/08/10 04:33:33;;;;;;;1.52;1.42;;;;;;;7.88;100.00;93359.84;2088893;28;20025;-84
2021/08/10 04:34:35;;;;;;;1.60;1.33;;;;;;;7.94;100.00;93357.53;2105789;28;20539;-84
2021/08/10 04:35:36;;;;;;;1.42;1.15;;;;;;;8.01;100.00;93358.22;2097102;28;20047;-84
2021/08/10 04:36:37;;;;;;;1.50;1.40;;;;;;;8.05;100.00;93355.53;2097306;28;20059;-86
2021/08/10 04:37:38;;;;;;;1.55;1.45;;;;;;;8.01;100.00;93357.47;2088621;28;20445;-86
2021/08/10 04:38:39;;;;;;;1.60;1.50;;;;;;;8.02;100.00;93358.97;2079753;28;20051;-88
2021/08/10 04:39:40;;;;;;;3.05;1.70;;;;;;;8.09;100.00;93358.94;2089140;28;20586;-86
2021/08/10 04:40:41;;;;;;;1.80;1.58;;;;;;;8.09;100.00;93358.94;2088199;28;20465;-87
2021/08/10 04:41:41;;;;;;;2.50;1.70;;;;;;;8.17;100.00;93362.31;2088427;28;20315;-86
2021/08/10 04:42:42;;;;;;;2.03;1.70;;;;;;;8.19;100.00;93368.72;2093567;28;20512;-86
2021/08/10 04:43:43;;;;;;;2.17;1.98;;;;;;;8.23;100.00;93371.38;2097159;28;20332;-85
2021/08/10 04:44:44;;;;;;;4.57;2.08;;;;;;;8.22;100.00;93362.63;2097208;28;20052;-84
2021/08/10 04:45:45;;;;;;;3.80;1.98;;;;;;;8.23;100.00;93366.78;2105012;28;20135;-86
2021/08/10 04:46:46;;;;;;;2.55;2.00;;;;;;;8.28;100.00;93366.38;2105487;28;20484;-86
2021/08/10 04:47:47;;;;;;;2.17;1.98;;;;;;;8.32;100.00;93361.00;2105064;28;20036;-84
2021/08/10 04:48:48;;;;;;;1.95;1.80;;;;;;;8.33;100.00;93365.94;2097027;28;20028;-86
2021/08/10 04:49:49;;;;;;;2.63;1.95;;;;;;;8.39;100.00;93368.22;2097397;28;20034;-85
2021/08/10 04:50:50;;;;;;;4.35;2.13;;;;;;;8.39;100.00;93360.22;2096733;28;20408;-84
2021/08/10 04:51:51;;;;;;;2.33;2.13;;;;;;;8.40;100.00;93364.41;2088701;28;20080;-84
2021/08/10 04:52:52;;;;;;;3.55;2.05;;;;;;;8.42;100.00;93368.16;2096661;28;20055;-87
2021/08/10 04:53:53;;;;;;;2.60;1.80;;;;;;;8.50;100.00;93369.63;2097075;28;20035;-86
2021/08/10 04:54:57;;;;;;;3.35;1.83;;;;;;;8.56;100.00;93370.72;2095794;28;20024;-85
2021/08/10 04:55:58;;;;;;;2.15;1.80;;;;;;;8.55;100.00;93366.50;2097206;28;20025;-87
2021/08/10 04:56:59;;;;;;;3.30;2.00;;;;;;;8.66;100.00;93363.75;2097061;28;20031;-83
2021/08/10 04:58:00;;;;;;;4.60;2.03;;;;;;;8.63;100.00;93371.78;2105364;28;20024;-87
2021/08/10 04:59:00;;;;;;;2.38;1.83;;;;;;;8.68;100.00;93358.03;2096709;28;20032;-86